createdAt,value
2022-10-11T00:00:45.572Z,67.82
2022-10-11T00:03:31.507Z,68.07
2022-10-11T00:06:03.761Z,68.16
2022-10-11T00:08:33.624Z,68.20
2022-10-11T00:11:07.759Z,68.17
2022-10-11T00:13:36.657Z,67.99
2022-10-11T00:16:11.309Z,67.88
2022-10-11T00:18:42.533Z,68.01
2022-10-11T00:21:15.304Z,67.98
2022-10-11T00:23:43.255Z,68.17
2022-10-11T00:26:15.048Z,67.98
2022-10-11T00:28:43.740Z,67.91
2022-10-11T00:31:18.454Z,67.88
2022-10-11T00:33:46.355Z,67.91
2022-10-11T00:36:16.762Z,67.93
2022-10-11T00:38:48.619Z,67.88
2022-10-11T00:41:17.995Z,67.50
2022-10-11T00:43:47.676Z,67.48
2022-10-11T00:46:18.758Z,67.39
2022-10-11T00:48:51.598Z,67.18
2022-10-11T00:51:28.959Z,67.07
2022-10-11T00:53:57.183Z,67.15
2022-10-11T00:56:31.479Z,67.08
2022-10-11T00:59:00.610Z,67.21
2022-10-11T01:01:28.475Z,67.28
2022-10-11T01:03:57.156Z,67.23
2022-10-11T01:06:25.831Z,67.52
2022-10-11T01:08:53.645Z,67.58
2022-10-11T01:11:25.301Z,68.09
2022-10-11T01:14:17.281Z,68.73
2022-10-11T01:17:04.539Z,68.12
2022-10-11T01:20:12.349Z,68.11
2022-10-11T01:23:43.469Z,68.04
2022-10-11T01:26:30.183Z,67.77
2022-10-11T01:29:12.723Z,67.50
2022-10-11T01:32:15.867Z,67.36
2022-10-11T01:34:59.003Z,67.19
2022-10-11T01:37:47.287Z,67.16
2022-10-11T01:40:25.451Z,67.29
2022-10-11T01:42:55.375Z,67.19
2022-10-11T01:45:24.539Z,67.35
2022-10-11T01:48:22.747Z,67.47
2022-10-11T01:50:53.802Z,67.39
2022-10-11T01:53:25.754Z,67.60
2022-10-11T01:56:10.806Z,68.75
2022-10-11T01:59:12.810Z,69.38
2022-10-11T02:02:16.812Z,70.42
2022-10-11T02:05:19.037Z,71.01
2022-10-11T02:07:52.832Z,71.51
2022-10-11T02:10:36.902Z,72.24
2022-10-11T02:13:29.155Z,72.62
2022-10-11T02:16:02.347Z,72.78
2022-10-11T02:18:34.017Z,72.80
2022-10-11T02:21:06.711Z,72.67
2022-10-11T02:23:56.898Z,72.84
2022-10-11T02:26:29.748Z,72.70
2022-10-11T02:29:01.638Z,72.51
2022-10-11T02:31:29.690Z,72.66
2022-10-11T02:34:02.862Z,72.49
2022-10-11T02:36:38.112Z,72.55
2022-10-11T02:39:25.315Z,72.32
2022-10-11T02:41:58.250Z,72.04
2022-10-11T02:44:59.758Z,72.03
2022-10-11T02:47:30.236Z,71.89
2022-10-11T02:50:00.301Z,71.86
2022-10-11T02:52:28.269Z,71.77
2022-10-11T02:54:56.338Z,71.72
2022-10-11T02:57:25.582Z,71.69
2022-10-11T02:59:53.686Z,71.56
2022-10-11T03:02:22.583Z,71.46
2022-10-11T03:04:50.654Z,71.42
2022-10-11T03:07:18.738Z,71.51
2022-10-11T03:09:46.913Z,71.40
2022-10-11T03:12:14.660Z,71.42
2022-10-11T03:14:42.486Z,71.42
2022-10-11T03:17:34.668Z,71.59
2022-10-11T03:19:58.805Z,71.51
2022-10-11T03:22:26.874Z,71.88
2022-10-11T03:24:56.644Z,71.94
2022-10-11T03:27:27.879Z,72.06
2022-10-11T03:29:58.715Z,72.01
2022-10-11T03:32:28.078Z,71.92
2022-10-11T03:34:57.049Z,72.04
2022-10-11T03:37:25.515Z,72.15
2022-10-11T03:39:53.810Z,72.17
2022-10-11T03:42:21.815Z,72.07
2022-10-11T03:44:51.892Z,72.07
2022-10-11T03:47:20.845Z,72.05
2022-10-11T03:49:49.103Z,72.12
2022-10-11T03:52:21.334Z,72.24
2022-10-11T03:54:49.338Z,72.18
2022-10-11T03:57:18.915Z,72.14
2022-10-11T03:59:48.178Z,72.15
2022-10-11T04:02:16.453Z,72.32
2022-10-11T04:04:44.473Z,72.27
2022-10-11T04:07:12.473Z,72.12
2022-10-11T04:09:40.352Z,72.27
2022-10-11T04:12:08.403Z,72.19
2022-10-11T04:14:36.993Z,71.99
2022-10-11T04:17:05.526Z,71.92
2022-10-11T04:19:33.675Z,71.96
2022-10-11T04:22:01.513Z,72.11
2022-10-11T04:24:29.540Z,72.13
2022-10-11T04:26:59.295Z,71.99
2022-10-11T04:29:31.549Z,72.13
2022-10-11T04:32:00.332Z,72.04
2022-10-11T04:34:28.216Z,72.05
2022-10-11T04:36:56.784Z,71.99
2022-10-11T04:39:24.894Z,72.00
2022-10-11T04:41:53.937Z,72.01
2022-10-11T04:44:21.881Z,72.12
2022-10-11T04:46:49.839Z,72.15
2022-10-11T04:49:17.731Z,72.40
2022-10-11T04:51:45.670Z,72.47
2022-10-11T04:54:26.575Z,72.73
2022-10-11T04:56:56.528Z,72.61
2022-10-11T04:59:24.643Z,72.71
2022-10-11T05:01:54.233Z,72.61
2022-10-11T05:04:22.187Z,72.61
2022-10-11T05:06:54.995Z,72.54
2022-10-11T05:09:23.207Z,72.52
2022-10-11T05:11:51.031Z,72.39
2022-10-11T05:14:20.186Z,72.27
2022-10-11T05:16:50.083Z,72.19
2022-10-11T05:19:17.905Z,72.12
2022-10-11T05:21:45.959Z,72.31
2022-10-11T05:24:14.367Z,72.27
2022-10-11T05:26:42.306Z,72.20
2022-10-11T05:29:10.550Z,72.29
2022-10-11T05:31:38.440Z,72.40
2022-10-11T05:34:06.295Z,72.12
2022-10-11T05:36:38.102Z,71.76
2022-10-11T05:39:06.123Z,71.60
2022-10-11T05:41:34.224Z,71.59
2022-10-11T05:44:03.323Z,71.73
2022-10-11T05:46:31.084Z,71.68
2022-10-11T05:49:00.382Z,71.66
2022-10-11T05:51:29.277Z,71.46
2022-10-11T05:53:58.733Z,71.43
2022-10-11T05:56:27.011Z,71.32
2022-10-11T05:59:02.159Z,71.19
2022-10-11T06:01:30.606Z,70.96
2022-10-11T06:04:00.802Z,70.96
2022-10-11T06:06:28.951Z,70.86
2022-10-11T06:08:59.060Z,70.51
2022-10-11T06:11:28.048Z,70.64
2022-10-11T06:14:00.708Z,70.70
2022-10-11T06:16:28.649Z,70.11
2022-10-11T06:18:59.399Z,69.79
2022-10-11T06:21:27.226Z,69.45
2022-10-11T06:24:01.316Z,69.32
2022-10-11T06:26:30.163Z,68.95
2022-10-11T06:28:59.357Z,68.67
2022-10-11T06:31:27.280Z,68.38
2022-10-11T06:33:56.042Z,68.06
2022-10-11T06:36:24.558Z,68.14
2022-10-11T06:38:53.722Z,68.18
2022-10-11T06:41:24.024Z,67.87
2022-10-11T06:43:51.949Z,67.86
2022-10-11T06:46:21.831Z,67.79
2022-10-11T06:48:50.723Z,67.46
2022-10-11T06:51:20.542Z,67.11
2022-10-11T06:53:51.779Z,66.99
2022-10-11T06:56:20.568Z,66.90
2022-10-11T06:58:52.106Z,66.95
2022-10-11T07:01:21.819Z,66.97
2022-10-11T07:03:51.666Z,66.69
2022-10-11T07:06:22.384Z,66.84
2022-10-11T07:08:50.298Z,66.52
2022-10-11T07:11:24.652Z,66.32
2022-10-11T07:13:55.078Z,65.88
2022-10-11T07:16:24.281Z,66.02
2022-10-11T07:18:59.563Z,65.41
2022-10-11T07:21:29.863Z,64.40
2022-10-11T07:23:58.163Z,64.77
2022-10-11T07:26:26.326Z,64.99
2022-10-11T07:28:55.872Z,63.95
2022-10-11T07:31:25.505Z,63.55
2022-10-11T07:33:54.039Z,63.58
2022-10-11T07:36:23.788Z,63.29
2022-10-11T07:38:51.869Z,62.75
2022-10-11T07:41:21.349Z,62.54
2022-10-11T07:43:51.004Z,61.27
2022-10-11T07:46:19.073Z,60.72
2022-10-11T07:48:47.055Z,61.29
2022-10-11T07:51:18.662Z,61.54
2022-10-11T07:53:57.152Z,61.03
2022-10-11T07:56:29.049Z,60.66
2022-10-11T07:59:03.614Z,59.61
2022-10-11T08:01:33.660Z,58.90
2022-10-11T08:04:01.760Z,58.98
2022-10-11T08:06:32.509Z,58.47
2022-10-11T08:09:02.158Z,57.61
2022-10-11T08:11:36.187Z,57.69
2022-10-11T08:14:08.802Z,57.91
2022-10-11T08:16:41.625Z,58.21
2022-10-11T08:19:11.630Z,57.27
2022-10-11T08:21:41.389Z,56.96
2022-10-11T08:24:15.216Z,57.23
2022-10-11T08:26:47.397Z,56.74
2022-10-11T08:29:15.555Z,56.23
2022-10-11T08:31:44.901Z,55.56
2022-10-11T08:34:14.235Z,55.22
2022-10-11T08:36:42.322Z,54.90
2022-10-11T08:39:12.319Z,54.56
2022-10-11T08:42:04.407Z,53.81
2022-10-11T08:45:09.630Z,52.28
2022-10-11T08:47:40.323Z,50.98
2022-10-11T08:50:19.910Z,50.41
2022-10-11T08:52:56.815Z,48.92
2022-10-11T08:55:29.108Z,49.38
2022-10-11T08:58:02.315Z,48.31
2022-10-11T09:00:32.232Z,48.14
2022-10-11T09:03:38.920Z,46.92
2022-10-11T09:06:22.624Z,46.68
2022-10-11T09:09:01.087Z,47.61
2022-10-11T09:12:09.117Z,46.57
2022-10-11T09:14:49.304Z,45.86
2022-10-11T09:17:17.288Z,45.30
2022-10-11T09:20:13.531Z,46.11
2022-10-11T09:22:50.784Z,45.68
2022-10-11T09:25:33.913Z,45.01
2022-10-11T09:28:23.915Z,43.88
2022-10-11T09:30:55.045Z,43.95
2022-10-11T09:33:40.636Z,43.73
2022-10-11T09:36:41.917Z,44.40
2022-10-11T09:39:27.704Z,45.37
2022-10-11T09:42:03.193Z,44.78
2022-10-11T09:44:41.558Z,44.36
2022-10-11T09:47:14.629Z,43.40
2022-10-11T09:50:08.165Z,43.93
2022-10-11T10:08:31.431Z,39.96
2022-10-11T10:11:38.722Z,39.08
2022-10-11T10:15:11.348Z,38.20
2022-10-11T10:17:57.831Z,37.69
2022-10-11T10:21:06.438Z,39.38
2022-10-11T10:23:39.473Z,39.11
2022-10-11T10:26:34.762Z,38.39
2022-10-11T10:34:16.161Z,37.72
2022-10-11T10:37:10.916Z,38.25
2022-10-11T10:41:13.472Z,39.64
2022-10-11T10:44:13.965Z,37.25
2022-10-11T10:47:30.377Z,36.96
2022-10-11T10:50:38.832Z,38.15
2022-10-11T10:57:00.450Z,38.10
2022-10-11T10:57:12.027Z,38.33
2022-10-11T11:04:37.962Z,36.86
2022-10-11T11:07:35.765Z,36.11
2022-10-11T11:14:30.380Z,34.53
2022-10-11T11:17:11.318Z,34.68
2022-10-11T11:19:49.468Z,34.37
2022-10-11T11:22:35.819Z,32.81
2022-10-11T11:25:28.351Z,32.51
2022-10-11T11:28:04.220Z,32.51
2022-10-11T11:30:45.475Z,33.14
2022-10-11T11:34:02.322Z,32.46
2022-10-11T11:41:21.186Z,32.71
2022-10-11T11:45:09.230Z,32.04
2022-10-11T11:48:18.869Z,32.30
2022-10-11T11:51:52.545Z,32.28
2022-10-11T11:56:01.972Z,31.66
2022-10-11T11:58:37.946Z,30.99
2022-10-11T12:01:09.098Z,30.74
2022-10-11T12:03:42.018Z,30.95
2022-10-11T12:06:30.282Z,31.48
2022-10-11T12:09:16.375Z,31.47
2022-10-11T12:11:59.148Z,31.34
2022-10-11T12:14:45.264Z,31.24
2022-10-11T12:17:23.446Z,30.99
2022-10-11T12:20:09.395Z,31.23
2022-10-11T12:22:49.474Z,30.00
2022-10-11T12:25:23.135Z,28.65
2022-10-11T12:27:57.003Z,29.63
2022-10-11T12:30:44.101Z,29.70
2022-10-11T12:33:24.628Z,29.81
2022-10-11T12:35:55.531Z,29.16
2022-10-11T12:38:26.103Z,30.08
2022-10-11T12:41:18.222Z,30.50
2022-10-11T12:43:48.798Z,30.19
2022-10-11T12:46:29.014Z,30.16
2022-10-11T12:49:05.853Z,30.21
2022-10-11T12:51:42.511Z,30.69
2022-10-11T12:54:37.402Z,30.89
2022-10-11T12:57:11.846Z,30.02
2022-10-11T12:59:45.108Z,30.05
2022-10-11T13:02:39.378Z,29.96
2022-10-11T13:05:16.136Z,29.93
2022-10-11T13:07:45.106Z,29.41
2022-10-11T13:10:20.599Z,29.14
2022-10-11T13:12:49.146Z,28.72
2022-10-11T13:15:19.451Z,28.15
2022-10-11T13:17:48.803Z,28.30
2022-10-11T13:20:19.837Z,28.45
2022-10-11T13:22:53.100Z,27.83
2022-10-11T13:25:29.519Z,27.65
2022-10-11T13:27:59.537Z,26.92
2022-10-11T13:30:34.267Z,27.13
2022-10-11T13:33:06.498Z,26.63
2022-10-11T13:35:36.492Z,26.06
2022-10-11T13:38:08.754Z,26.07
2022-10-11T13:40:37.734Z,25.81
2022-10-11T13:43:05.817Z,25.25
2022-10-11T13:45:36.914Z,25.16
2022-10-11T13:48:05.208Z,24.41
2022-10-11T13:50:34.453Z,23.97
2022-10-11T13:53:05.338Z,23.56
2022-10-11T13:55:57.321Z,23.06
2022-10-11T13:58:30.654Z,23.74
2022-10-11T14:01:01.492Z,24.44
2022-10-11T14:03:41.330Z,25.05
2022-10-11T14:06:09.731Z,26.03
2022-10-11T14:08:59.434Z,26.19
2022-10-11T14:11:36.851Z,25.22
2022-10-11T14:14:32.883Z,24.66
2022-10-11T14:17:12.289Z,24.04
2022-10-11T14:19:40.913Z,23.76
2022-10-11T14:22:17.052Z,23.40
2022-10-11T14:24:48.232Z,23.13
2022-10-11T14:27:21.954Z,22.09
2022-10-11T14:30:12.916Z,21.66
2022-10-11T14:32:39.919Z,21.06
2022-10-11T14:35:24.588Z,21.32
2022-10-11T14:37:52.912Z,21.31
2022-10-11T14:40:24.205Z,21.96
2022-10-11T14:42:52.165Z,21.96
2022-10-11T14:45:21.390Z,22.09
2022-10-11T14:47:49.774Z,21.60
2022-10-11T14:50:28.636Z,21.11
2022-10-11T14:52:57.301Z,21.18
2022-10-11T14:55:25.254Z,21.26
2022-10-11T14:57:53.106Z,21.04
2022-10-11T15:00:24.299Z,20.48
2022-10-11T15:02:55.283Z,20.61
2022-10-11T15:05:26.910Z,20.87
2022-10-11T15:07:57.741Z,21.12
2022-10-11T15:10:28.339Z,21.03
2022-10-11T15:12:56.855Z,20.78
2022-10-11T15:15:26.485Z,21.16
2022-10-11T15:17:57.303Z,20.85
2022-10-11T15:20:35.955Z,20.79
2022-10-11T15:23:04.688Z,20.88
2022-10-11T15:25:32.479Z,21.21
2022-10-11T15:28:00.520Z,22.34
2022-10-11T15:30:31.658Z,23.30
2022-10-11T15:32:59.601Z,24.57
2022-10-11T15:35:27.850Z,26.05
2022-10-11T15:37:58.251Z,27.82
2022-10-11T15:40:36.941Z,28.75
2022-10-11T15:43:05.246Z,30.57
2022-10-11T15:45:34.212Z,32.06
2022-10-11T15:48:02.099Z,33.48
2022-10-11T15:50:39.403Z,34.76
2022-10-11T15:53:10.476Z,36.21
2022-10-11T15:55:49.512Z,37.43
2022-10-11T15:58:19.283Z,38.19
2022-10-11T16:00:48.660Z,38.78
2022-10-11T16:03:17.684Z,39.43
2022-10-11T16:05:45.565Z,40.38
2022-10-11T16:08:14.217Z,41.08
2022-10-11T16:10:42.185Z,41.50
2022-10-11T16:13:10.733Z,42.28
2022-10-11T16:15:40.888Z,42.83
2022-10-11T16:18:10.776Z,43.25
2022-10-11T16:20:39.828Z,43.87
2022-10-11T16:23:08.069Z,44.30
2022-10-11T16:25:39.312Z,45.04
2022-10-11T16:28:08.189Z,45.62
2022-10-11T16:30:45.214Z,46.29
2022-10-11T16:33:13.365Z,47.23
2022-10-11T16:35:41.794Z,47.59
2022-10-11T16:38:10.547Z,48.30
2022-10-11T16:40:39.994Z,49.36
2022-10-11T16:43:08.314Z,49.45
2022-10-11T16:45:36.357Z,49.35
2022-10-11T16:48:04.865Z,49.83
2022-10-11T16:50:38.317Z,50.12
2022-10-11T16:53:07.430Z,50.69
2022-10-11T16:55:35.364Z,51.04
2022-10-11T16:58:03.134Z,51.32
2022-10-11T17:00:30.991Z,51.70
2022-10-11T17:02:59.225Z,51.92
2022-10-11T17:05:27.017Z,52.48
2022-10-11T17:07:54.826Z,52.88
2022-10-11T17:10:39.291Z,53.25
2022-10-11T17:13:07.501Z,53.56
2022-10-11T17:15:36.148Z,53.53
2022-10-11T17:18:04.002Z,53.73
2022-10-11T17:20:32.295Z,53.82
2022-10-11T17:23:00.049Z,54.28
2022-10-11T17:25:28.210Z,54.74
2022-10-11T17:27:56.939Z,55.13
2022-10-11T17:30:26.295Z,55.53
2022-10-11T17:32:54.286Z,55.60
2022-10-11T17:35:22.020Z,55.82
2022-10-11T17:37:50.143Z,55.65
2022-10-11T17:40:18.590Z,56.17
2022-10-11T17:42:47.785Z,56.30
2022-10-11T17:45:15.939Z,56.45
2022-10-11T17:47:44.039Z,56.60
2022-10-11T17:50:11.837Z,56.64
2022-10-11T17:52:39.635Z,56.97
2022-10-11T17:55:07.857Z,56.92
2022-10-11T17:57:35.660Z,57.09
2022-10-11T18:00:05.304Z,57.25
2022-10-11T18:02:34.633Z,57.48
2022-10-11T18:05:04.271Z,57.80
2022-10-11T18:07:32.339Z,57.38
2022-10-11T18:10:00.549Z,57.43
2022-10-11T18:12:28.404Z,57.84
2022-10-11T18:14:56.303Z,58.06
2022-10-11T18:17:24.077Z,58.12
2022-10-11T18:19:51.899Z,58.15
2022-10-11T18:22:19.784Z,58.28
2022-10-11T18:24:48.784Z,58.37
2022-10-11T18:27:16.622Z,58.48
2022-10-11T18:29:44.399Z,58.19
2022-10-11T18:32:12.222Z,58.42
2022-10-11T18:34:40.113Z,58.51
2022-10-11T18:37:08.491Z,58.40
2022-10-11T18:39:36.255Z,58.43
2022-10-11T18:42:04.684Z,58.55
2022-10-11T18:44:32.712Z,58.71
2022-10-11T18:47:00.570Z,58.77
2022-10-11T18:49:28.468Z,58.69
2022-10-11T18:51:57.122Z,58.76
2022-10-11T18:54:24.962Z,58.75
2022-10-11T18:56:52.905Z,58.79
2022-10-11T18:59:20.671Z,58.95
2022-10-11T19:01:52.079Z,59.10
2022-10-11T19:04:20.339Z,59.21
2022-10-11T19:06:48.721Z,59.31
2022-10-11T19:09:22.444Z,59.50
2022-10-11T19:11:52.066Z,59.40
2022-10-11T19:14:22.370Z,59.41
2022-10-11T19:16:51.718Z,59.59
2022-10-11T19:19:21.224Z,59.49
2022-10-11T19:21:49.489Z,59.50
2022-10-11T19:24:18.831Z,59.49
2022-10-11T19:26:47.407Z,59.46
2022-10-11T19:29:19.133Z,59.43
2022-10-11T19:31:52.067Z,59.57
2022-10-11T19:34:21.372Z,59.87
2022-10-11T19:36:53.420Z,60.18
2022-10-11T19:39:22.291Z,60.48
2022-10-11T19:41:50.569Z,60.34
2022-10-11T19:44:18.882Z,60.22
2022-10-11T19:46:52.091Z,60.10
2022-10-11T19:49:24.916Z,59.79
2022-10-11T19:51:55.224Z,59.83
2022-10-11T19:54:24.270Z,59.83
2022-10-11T19:56:53.615Z,59.99
2022-10-11T19:59:21.535Z,60.25
2022-10-11T20:01:52.767Z,60.51
2022-10-11T20:07:10.766Z,60.48
2022-10-11T20:09:38.699Z,60.27
2022-10-11T20:12:07.382Z,59.91
2022-10-11T20:14:35.157Z,59.91
2022-10-11T20:17:02.919Z,60.40
2022-10-11T20:19:31.290Z,60.49
2022-10-11T20:22:01.055Z,60.53
2022-10-11T20:24:32.975Z,60.78
2022-10-11T20:27:03.769Z,60.84
2022-10-11T20:29:31.661Z,61.02
2022-10-11T20:32:00.227Z,61.05
2022-10-11T20:34:28.384Z,61.15
2022-10-11T20:36:56.382Z,61.21
2022-10-11T20:39:24.203Z,61.00
2022-10-11T20:41:52.141Z,60.90
2022-10-11T20:44:19.951Z,60.70
2022-10-11T20:46:47.761Z,60.52
2022-10-11T20:49:15.600Z,60.54
2022-10-11T20:51:43.971Z,60.50
2022-10-11T20:54:12.062Z,60.41
2022-10-11T20:56:39.887Z,60.46
2022-10-11T20:59:08.601Z,60.55
2022-10-11T21:01:40.843Z,60.32
2022-10-11T21:04:17.569Z,60.46
2022-10-11T21:06:45.882Z,60.56
2022-10-11T21:09:15.677Z,60.62
2022-10-11T21:11:45.129Z,60.70
2022-10-11T21:14:13.239Z,60.98
2022-10-11T21:16:41.022Z,60.88
2022-10-11T21:19:12.787Z,61.00
2022-10-11T21:21:40.670Z,60.83
2022-10-11T21:24:08.558Z,60.95
2022-10-11T21:26:36.385Z,60.85
2022-10-11T21:29:04.341Z,61.31
2022-10-11T21:31:34.231Z,61.38
2022-10-11T21:34:04.980Z,61.56
2022-10-11T21:36:33.075Z,61.19
2022-10-11T21:39:00.852Z,61.01
2022-10-11T21:41:31.598Z,60.78
2022-10-11T21:43:59.523Z,60.74
2022-10-11T21:46:54.230Z,60.69
2022-10-11T21:49:17.394Z,60.72
2022-10-11T21:51:45.336Z,60.96
2022-10-11T21:54:13.207Z,60.96
2022-10-11T21:56:40.957Z,61.02
2022-10-11T21:59:12.066Z,61.00
2022-10-11T22:01:41.658Z,60.92
2022-10-11T22:04:10.564Z,60.88
2022-10-11T22:06:39.355Z,60.99
2022-10-11T22:09:08.269Z,60.87
2022-10-11T22:11:36.533Z,61.02
2022-10-11T22:14:04.469Z,60.91
2022-10-11T22:16:33.302Z,60.73
2022-10-11T22:19:01.005Z,60.75
2022-10-11T22:21:28.809Z,60.66
2022-10-11T22:23:56.703Z,60.59
2022-10-11T22:26:26.983Z,60.56
2022-10-11T22:28:54.713Z,60.64
2022-10-11T22:31:23.301Z,60.69
2022-10-11T22:33:58.488Z,60.52
2022-10-11T22:36:27.364Z,60.46
2022-10-11T22:38:55.098Z,60.60
2022-10-11T22:41:23.245Z,60.61
2022-10-11T22:43:51.272Z,60.43
2022-10-11T22:46:19.028Z,60.33
2022-10-11T22:48:46.878Z,60.29
2022-10-11T22:51:14.677Z,60.21
2022-10-11T22:53:42.780Z,60.17
2022-10-11T22:56:11.232Z,60.21
2022-10-11T22:58:38.986Z,60.07
2022-10-11T23:01:40.748Z,60.11
2022-10-11T23:04:08.793Z,60.32
2022-10-11T23:06:36.579Z,60.27
2022-10-11T23:09:04.867Z,60.33
2022-10-11T23:11:32.597Z,60.64
2022-10-11T23:14:00.347Z,60.72
2022-10-11T23:16:28.147Z,61.01
2022-10-11T23:18:55.951Z,60.93
2022-10-11T23:21:23.815Z,61.12
2022-10-11T23:23:55.322Z,61.14
2022-10-11T23:26:23.264Z,60.89
2022-10-11T23:28:54.633Z,60.85
2022-10-11T23:31:22.565Z,60.92
2022-10-11T23:33:50.299Z,60.55
2022-10-11T23:36:23.491Z,60.35
2022-10-11T23:38:58.591Z,60.43
2022-10-11T23:41:28.308Z,60.15
2022-10-11T23:43:56.624Z,60.12
2022-10-11T23:46:28.398Z,60.29
2022-10-11T23:48:56.324Z,60.33
2022-10-11T23:51:24.370Z,60.34
2022-10-11T23:53:52.334Z,60.22
2022-10-11T23:56:20.184Z,60.69
2022-10-11T23:58:48.040Z,60.72
